Time;durP1;ratioP1;P1;durP2;ratioP2;P2;SDS_P1;SDS_P2;PMS_P1;PMS_P2;Temp;Humidity;BMP_temperature;BMP_pressure;BME280_temperature;BME280_humidity;BME280_pressure;Samples;Min_cycle;Max_cycle;Signal;HPM_P1;HPM_P2
2021/11/25 00:01:18;;;;;;;28.10;21.02;;;15.60;51.70;;;;;;5054591;28;20017;-59
2021/11/25 00:03:44;;;;;;;24.35;20.13;;;15.60;51.70;;;;;;5054867;28;20079;-59
2021/11/25 00:06:10;;;;;;;26.55;20.58;;;15.60;51.70;;;;;;5054578;28;20081;-60
2021/11/25 00:08:37;;;;;;;25.42;20.20;;;15.60;51.70;;;;;;5054706;28;20024;-60
2021/11/25 00:11:03;;;;;;;24.30;20.48;;;15.60;51.70;;;;;;5055069;28;20017;-60
2021/11/25 00:13:29;;;;;;;31.98;21.15;;;15.60;51.70;;;;;;5054591;28;20013;-59
2021/11/25 00:15:55;;;;;;;25.95;20.50;;;15.60;51.70;;;;;;5036689;28;20608;-59
2021/11/25 00:18:22;;;;;;;28.63;20.88;;;15.60;51.70;;;;;;5037048;28;20038;-60
2021/11/25 00:20:47;;;;;;;26.42;19.90;;;15.60;51.70;;;;;;5054711;28;20047;-59
2021/11/25 00:23:14;;;;;;;28.60;20.67;;;15.50;51.70;;;;;;5054130;28;20028;-60
2021/11/25 00:25:41;;;;;;;28.20;20.92;;;15.50;51.70;;;;;;5054609;28;20021;-60
2021/11/25 00:28:07;;;;;;;28.33;22.00;;;15.50;51.70;;;;;;5036533;28;20021;-60
2021/11/25 00:30:34;;;;;;;26.38;20.75;;;15.50;51.70;;;;;;5054667;28;20028;-60
2021/11/25 00:33:00;;;;;;;30.88;21.52;;;15.50;51.70;;;;;;5054934;28;20094;-60
2021/11/25 00:35:26;;;;;;;28.83;20.55;;;15.50;51.70;;;;;;5036759;28;20017;-60
2021/11/25 00:37:51;;;;;;;28.77;21.73;;;15.50;51.70;;;;;;5036934;28;20079;-60
2021/11/25 00:40:18;;;;;;;29.48;21.63;;;15.50;51.70;;;;;;5054719;28;20025;-60
2021/11/25 00:42:44;;;;;;;26.73;20.25;;;15.50;51.80;;;;;;5054886;28;20017;-60
2021/11/25 00:45:10;;;;;;;30.25;21.38;;;15.50;51.80;;;;;;5054361;28;20013;-60
2021/11/25 00:47:36;;;;;;;29.77;21.80;;;15.50;51.70;;;;;;5054602;28;20059;-59
2021/11/25 00:50:05;;;;;;;32.17;22.70;;;15.50;51.80;;;;;;5036528;28;20045;-60
2021/11/25 00:52:32;;;;;;;27.73;21.05;;;15.50;51.80;;;;;;5054004;28;20021;-59
2021/11/25 00:54:58;;;;;;;29.35;21.90;;;15.40;51.80;;;;;;5035543;28;20100;-60
2021/11/25 00:57:24;;;;;;;29.55;21.30;;;15.50;51.90;;;;;;5054257;28;20047;-59
2021/11/25 00:59:51;;;;;;;27.83;21.25;;;15.40;51.90;;;;;;5036213;28;20028;-60
2021/11/25 01:02:18;;;;;;;35.20;22.67;;;15.40;51.90;;;;;;5053930;28;20025;-59
2021/11/25 01:04:44;;;;;;;30.92;21.70;;;15.40;51.90;;;;;;5035592;28;20052;-60
2021/11/25 01:07:11;;;;;;;28.35;22.65;;;15.50;52.00;;;;;;5054015;28;20025;-59
2021/11/25 01:09:37;;;;;;;31.30;22.77;;;15.50;52.00;;;;;;5036432;28;20151;-59
2021/11/25 01:12:03;;;;;;;33.08;22.65;;;15.40;51.90;;;;;;5054564;28;20013;-59
2021/11/25 01:14:30;;;;;;;29.20;22.05;;;15.40;52.00;;;;;;5054286;28;20045;-60
2021/11/25 01:16:56;;;;;;;32.40;23.92;;;15.40;52.00;;;;;;5053464;28;20017;-59
2021/11/25 01:19:22;;;;;;;31.55;23.40;;;15.40;52.00;;;;;;5053271;28;20075;-61
2021/11/25 01:21:49;;;;;;;32.00;22.02;;;15.40;52.00;;;;;;5053296;28;20013;-60
2021/11/25 01:24:14;;;;;;;27.33;21.25;;;15.40;52.10;;;;;;5053796;28;20028;-59
2021/11/25 01:26:41;;;;;;;28.02;22.85;;;15.40;52.10;;;;;;5035321;28;20036;-59
2021/11/25 01:29:07;;;;;;;32.92;24.17;;;15.40;52.10;;;;;;5053369;28;20089;-59
2021/11/25 01:31:33;;;;;;;33.85;23.40;;;15.40;52.10;;;;;;5052912;28;20099;-60
2021/11/25 01:33:59;;;;;;;28.65;23.08;;;15.40;52.10;;;;;;5053133;28;20071;-60
2021/11/25 01:36:26;;;;;;;29.92;22.92;;;15.40;52.10;;;;;;5053649;28;20020;-59
2021/11/25 01:38:52;;;;;;;30.83;23.77;;;15.40;52.10;;;;;;5053290;28;20020;-60
2021/11/25 01:41:18;;;;;;;33.72;23.17;;;15.40;52.20;;;;;;5053193;28;20025;-58
2021/11/25 01:43:44;;;;;;;33.60;23.65;;;15.40;52.20;;;;;;5054485;28;20163;-60
2021/11/25 01:46:15;;;;;;;35.33;23.35;;;15.40;52.20;;;;;;5054104;28;20151;-60
2021/11/25 01:48:41;;;;;;;29.42;22.65;;;15.40;52.30;;;;;;5036373;28;20028;-59
2021/11/25 01:51:08;;;;;;;31.85;23.77;;;15.40;52.30;;;;;;5035832;28;20482;-59
2021/11/25 01:53:35;;;;;;;33.65;23.65;;;15.40;52.30;;;;;;5053495;28;20481;-59
2021/11/25 01:56:01;;;;;;;32.97;23.38;;;15.40;52.30;;;;;;5053111;28;20017;-59
2021/11/25 01:58:27;;;;;;;33.78;24.05;;;15.40;52.30;;;;;;5035443;28;20376;-59
2021/11/25 02:00:54;;;;;;;32.40;22.50;;;15.40;52.30;;;;;;5053310;28;20017;-59
2021/11/25 02:03:21;;;;;;;30.95;23.13;;;15.40;52.40;;;;;;5053180;28;20060;-60
2021/11/25 02:05:47;;;;;;;31.27;23.67;;;15.40;52.40;;;;;;5053181;28;20041;-60
2021/11/25 02:08:14;;;;;;;32.67;24.25;;;15.30;52.40;;;;;;5055934;28;20021;-59
2021/11/25 02:10:41;;;;;;;35.08;24.65;;;15.30;52.30;;;;;;5056830;28;20031;-60
2021/11/25 02:13:07;;;;;;;34.47;23.98;;;15.30;52.30;;;;;;5057733;28;20070;-60
2021/11/25 02:15:37;;;;;;;30.92;23.67;;;15.30;52.40;;;;;;5057316;28;20017;-60
2021/11/25 02:18:04;;;;;;;30.00;22.73;;;15.30;52.30;;;;;;5056794;28;20423;-60
2021/11/25 02:20:38;;;;;;;31.20;23.63;;;15.30;52.30;;;;;;5039886;28;20365;-59
2021/11/25 02:23:04;;;;;;;29.65;23.77;;;15.30;52.30;;;;;;5039144;28;20024;-60
2021/11/25 02:25:30;;;;;;;31.95;23.25;;;15.30;52.40;;;;;;5056765;28;20389;-60
2021/11/25 02:27:56;;;;;;;36.47;24.40;;;15.30;52.30;;;;;;5039152;28;20529;-59
2021/11/25 02:30:22;;;;;;;37.90;24.25;;;15.30;52.30;;;;;;5056889;28;20155;-59
2021/11/25 02:32:48;;;;;;;29.90;23.98;;;15.30;52.30;;;;;;5056878;28;20135;-60
2021/11/25 02:35:19;;;;;;;33.83;24.10;;;15.30;52.30;;;;;;5056865;28;20013;-60
2021/11/25 02:37:46;;;;;;;31.77;24.63;;;15.30;52.30;;;;;;5057023;28;20499;-59
2021/11/25 02:40:28;;;;;;;31.00;24.35;;;15.30;52.30;;;;;;5057204;28;20017;-59
2021/11/25 02:42:56;;;;;;;34.13;23.70;;;15.30;52.30;;;;;;5057589;28;20028;-59
2021/11/25 02:45:23;;;;;;;31.40;22.70;;;15.30;52.30;;;;;;5057130;28;20025;-59
2021/11/25 02:47:49;;;;;;;32.03;23.70;;;15.30;52.30;;;;;;5057071;28;20032;-59
2021/11/25 02:50:17;;;;;;;31.95;22.85;;;15.30;52.30;;;;;;5057261;28;20021;-59
2021/11/25 02:52:43;;;;;;;34.30;22.73;;;15.20;52.30;;;;;;5057333;28;20013;-59
2021/11/25 02:55:09;;;;;;;31.55;24.33;;;15.30;52.30;;;;;;5057538;28;20020;-59
2021/11/25 02:57:36;;;;;;;30.88;22.23;;;15.30;52.40;;;;;;5058322;28;20055;-59
2021/11/25 03:00:05;;;;;;;32.05;23.02;;;15.20;52.30;;;;;;5056869;28;20017;-59
2021/11/25 03:02:31;;;;;;;29.75;22.50;;;15.20;52.30;;;;;;5056780;28;20021;-61
2021/11/25 03:04:57;;;;;;;35.92;23.25;;;15.20;52.30;;;;;;5056910;28;20063;-59
2021/11/25 03:07:23;;;;;;;30.60;22.65;;;15.20;52.30;;;;;;5056452;28;20040;-59
2021/11/25 03:09:49;;;;;;;27.70;21.80;;;15.20;52.30;;;;;;5057090;28;20025;-60
2021/11/25 03:12:15;;;;;;;33.75;23.50;;;15.20;52.30;;;;;;5057180;28;20021;-59
2021/11/25 03:14:43;;;;;;;29.02;22.13;;;15.20;52.40;;;;;;5057784;28;20018;-59
2021/11/25 03:17:11;;;;;;;30.70;22.50;;;15.20;52.40;;;;;;5057238;28;20035;-59
2021/11/25 03:19:39;;;;;;;29.48;22.42;;;15.20;52.40;;;;;;5039683;28;20048;-60
2021/11/25 03:22:05;;;;;;;33.60;23.05;;;15.20;52.40;;;;;;5038729;28;20540;-60
2021/11/25 03:24:30;;;;;;;28.70;22.27;;;15.20;52.30;;;;;;5038228;28;20056;-60
2021/11/25 03:26:57;;;;;;;27.83;22.50;;;15.20;52.40;;;;;;5056019;28;20029;-59
2021/11/25 03:29:23;;;;;;;31.13;22.60;;;15.20;52.30;;;;;;5055856;28;20473;-60
2021/11/25 03:31:48;;;;;;;31.70;22.30;;;15.20;52.40;;;;;;5021408;28;20025;-60
2021/11/25 03:34:14;;;;;;;31.95;22.85;;;15.20;52.30;;;;;;5055602;28;20040;-60
2021/11/25 03:36:40;;;;;;;27.42;21.85;;;15.20;52.30;;;;;;5055123;28;20017;-60
2021/11/25 03:39:07;;;;;;;30.08;21.88;;;15.20;52.40;;;;;;5055261;28;20021;-60
2021/11/25 03:41:33;;;;;;;26.73;21.98;;;15.10;52.30;;;;;;5055725;28;20088;-59
2021/11/25 03:43:58;;;;;;;31.73;23.35;;;15.20;52.30;;;;;;5038061;28;20048;-60
2021/11/25 03:46:24;;;;;;;27.52;21.73;;;15.20;52.30;;;;;;5037948;28;20060;-60
2021/11/25 03:48:52;;;;;;;31.08;20.52;;;15.20;52.30;;;;;;5021363;28;20084;-59
2021/11/25 03:51:18;;;;;;;30.25;21.85;;;15.20;52.30;;;;;;5055865;28;20139;-60
2021/11/25 03:53:44;;;;;;;27.95;21.83;;;15.10;52.30;;;;;;5037352;28;20067;-60
2021/11/25 03:56:11;;;;;;;31.65;23.42;;;15.10;52.30;;;;;;5054879;28;20025;-60
2021/11/25 03:58:37;;;;;;;32.63;22.65;;;15.10;52.30;;;;;;5055606;28;20021;-60
2021/11/25 04:01:03;;;;;;;32.53;22.27;;;15.10;52.30;;;;;;5055847;28;20024;-59
2021/11/25 04:03:30;;;;;;;32.90;22.38;;;15.10;52.30;;;;;;5055417;28;20023;-59
2021/11/25 04:05:55;;;;;;;31.70;22.00;;;15.10;52.40;;;;;;5054318;28;20052;-59
2021/11/25 04:08:21;;;;;;;27.05;22.23;;;15.10;52.90;;;;;;5055366;28;20024;-59
2021/11/25 04:10:50;;;;;;;32.05;22.60;;;15.10;52.30;;;;;;5037688;28;20017;-60
2021/11/25 04:13:15;;;;;;;29.40;22.45;;;15.10;52.40;;;;;;5054875;28;20531;-60
2021/11/25 04:15:41;;;;;;;28.77;21.63;;;15.10;52.40;;;;;;5056186;28;20040;-59
2021/11/25 04:18:08;;;;;;;31.13;21.63;;;15.10;52.30;;;;;;5056102;28;20021;-60
2021/11/25 04:20:34;;;;;;;30.02;21.45;;;15.10;52.30;;;;;;5056215;28;20132;-60
2021/11/25 04:23:00;;;;;;;30.17;21.73;;;15.10;52.20;;;;;;5056056;28;20029;-60
2021/11/25 04:25:26;;;;;;;32.92;21.73;;;15.10;52.20;;;;;;5055518;28;20100;-58
2021/11/25 04:27:52;;;;;;;27.30;20.25;;;15.10;52.10;;;;;;5055534;28;20469;-60
2021/11/25 04:38:05;;;;;;;29.10;20.88;;;15.50;51.10;;;;;;5055060;28;20025;-59
2021/11/25 04:40:34;;;;;;;25.15;20.17;;;15.60;50.90;;;;;;5054584;28;20024;-60
2021/11/25 04:43:00;;;;;;;29.65;20.40;;;15.80;50.70;;;;;;5054140;28;20021;-59
2021/11/25 04:45:25;;;;;;;26.25;20.00;;;15.80;50.40;;;;;;5054447;28;20023;-59
2021/11/25 04:47:59;;;;;;;29.42;21.23;;;15.90;50.20;;;;;;5054719;28;20120;-61
2021/11/25 04:50:25;;;;;;;27.83;20.05;;;16.00;50.00;;;;;;5054648;28;20017;-64
2021/11/25 04:52:52;;;;;;;26.35;19.40;;;16.10;49.50;;;;;;5054256;28;20412;-60
2021/11/25 04:55:17;;;;;;;25.15;19.45;;;16.20;49.30;;;;;;5054094;28;20023;-59
2021/11/25 04:57:44;;;;;;;26.10;19.70;;;16.30;49.20;;;;;;5036447;28;20029;-59
2021/11/25 05:00:11;;;;;;;26.98;19.35;;;16.40;49.00;;;;;;5036649;28;20025;-60
2021/11/25 05:02:36;;;;;;;27.48;19.63;;;16.40;48.90;;;;;;5019950;28;20052;-59
2021/11/25 05:05:04;;;;;;;24.98;18.55;;;16.50;48.60;;;;;;5036597;28;20080;-59
2021/11/25 05:07:32;;;;;;;23.23;19.15;;;16.60;48.50;;;;;;5053995;28;20035;-60
2021/11/25 05:09:58;;;;;;;24.70;18.42;;;16.70;48.20;;;;;;5054959;28;20021;-60
2021/11/25 05:12:24;;;;;;;27.38;18.83;;;16.70;48.10;;;;;;5054819;28;20096;-60
2021/11/25 05:14:50;;;;;;;23.63;18.83;;;16.80;47.90;;;;;;5053951;28;20503;-60
2021/11/25 05:17:16;;;;;;;25.75;18.98;;;16.90;47.80;;;;;;5053903;28;20013;-60
2021/11/25 05:19:41;;;;;;;24.08;18.60;;;17.00;47.60;;;;;;5053032;28;20021;-60
2021/11/25 05:22:07;;;;;;;28.55;18.48;;;17.10;47.40;;;;;;5053327;28;20098;-60
2021/11/25 05:24:33;;;;;;;23.20;18.25;;;17.10;47.20;;;;;;5053356;28;20033;-60
2021/11/25 05:26:59;;;;;;;22.98;17.05;;;17.20;47.00;;;;;;5052988;28;20025;-59
2021/11/25 05:29:28;;;;;;;24.73;17.75;;;17.30;46.90;;;;;;5002437;28;20028;-59
2021/11/25 05:31:54;;;;;;;24.63;16.98;;;17.40;46.70;;;;;;5019821;28;20036;-60
2021/11/25 05:34:23;;;;;;;23.95;17.42;;;17.40;46.50;;;;;;5053047;28;20009;-60
2021/11/25 05:36:49;;;;;;;23.98;18.15;;;17.50;46.40;;;;;;5053289;28;20036;-60
2021/11/25 05:39:15;;;;;;;23.75;17.75;;;17.60;46.20;;;;;;5053260;28;20013;-59
2021/11/25 05:41:41;;;;;;;24.67;16.83;;;17.60;46.10;;;;;;5053037;28;20040;-60
2021/11/25 05:44:07;;;;;;;25.38;18.10;;;17.70;46.60;;;;;;5053511;28;20013;-59
2021/11/25 05:46:32;;;;;;;26.48;18.20;;;17.70;45.80;;;;;;5053745;28;20053;-59
2021/11/25 05:48:58;;;;;;;27.33;18.17;;;17.80;45.60;;;;;;5054474;28;20044;-60
2021/11/25 05:51:25;;;;;;;25.65;18.33;;;17.90;45.50;;;;;;5053925;28;20028;-59
2021/11/25 05:53:52;;;;;;;26.00;16.85;;;17.90;45.40;;;;;;5035660;28;20470;-60
2021/11/25 05:56:19;;;;;;;22.98;17.05;;;18.00;45.20;;;;;;5036044;28;20032;-60
2021/11/25 05:58:45;;;;;;;23.48;17.13;;;18.00;45.10;;;;;;5054421;28;20021;-60
2021/11/25 06:01:12;;;;;;;24.48;17.05;;;18.10;44.90;;;;;;5053257;28;20037;-60
2021/11/25 06:03:39;;;;;;;24.13;17.58;;;18.20;44.90;;;;;;5053262;28;20025;-59
2021/11/25 06:06:06;;;;;;;24.80;17.63;;;18.20;44.80;;;;;;5054008;28;20021;-59
2021/11/25 06:08:32;;;;;;;22.88;16.98;;;18.30;44.50;;;;;;5036135;28;20028;-59
2021/11/25 06:11:02;;;;;;;23.60;16.80;;;18.40;44.50;;;;;;5052916;28;20385;-59
2021/11/25 06:13:29;;;;;;;22.60;15.85;;;18.40;44.30;;;;;;5036792;28;20014;-59
2021/11/25 06:15:55;;;;;;;25.33;17.40;;;18.40;44.20;;;;;;5036516;28;20021;-59
2021/11/25 06:18:21;;;;;;;26.02;17.23;;;18.50;44.10;;;;;;5053494;28;20088;-60
2021/11/25 06:20:47;;;;;;;26.02;18.33;;;18.50;43.90;;;;;;5053940;28;20056;-60
2021/11/25 06:23:13;;;;;;;24.05;17.50;;;18.50;43.90;;;;;;5019852;28;20033;-59
2021/11/25 06:25:40;;;;;;;21.58;17.02;;;18.60;43.80;;;;;;5036278;28;20389;-60
2021/11/25 06:28:06;;;;;;;22.40;17.33;;;18.50;43.70;;;;;;5020308;28;20042;-59
2021/11/25 06:30:33;;;;;;;22.10;16.48;;;18.60;43.60;;;;;;5054463;28;20044;-59
2021/11/25 06:32:58;;;;;;;22.40;16.75;;;18.70;43.60;;;;;;5053786;28;20473;-60
2021/11/25 06:35:27;;;;;;;22.25;17.00;;;18.70;43.50;;;;;;5019356;28;20028;-60
2021/11/25 06:37:53;;;;;;;24.95;17.83;;;18.80;43.40;;;;;;5035909;28;20028;-59
2021/11/25 06:40:28;;;;;;;23.65;17.25;;;18.80;43.30;;;;;;5053417;28;20027;-59
2021/11/25 06:42:54;;;;;;;27.13;18.27;;;18.80;43.20;;;;;;5052664;28;20019;-60
2021/11/25 06:45:20;;;;;;;25.15;17.35;;;18.70;43.20;;;;;;5053518;28;20071;-59
2021/11/25 06:47:47;;;;;;;26.35;17.67;;;18.70;43.30;;;;;;5053057;28;20017;-60
2021/11/25 06:50:13;;;;;;;27.42;18.08;;;18.70;43.10;;;;;;5054030;28;20017;-60
2021/11/25 06:52:39;;;;;;;22.27;17.13;;;18.80;43.10;;;;;;5019219;28;20063;-60
2021/11/25 06:55:06;;;;;;;25.27;17.95;;;18.80;43.00;;;;;;5056841;28;20469;-60
2021/11/25 06:57:32;;;;;;;23.58;18.63;;;18.90;42.90;;;;;;5056632;28;20013;-60
2021/11/25 06:59:58;;;;;;;27.15;17.92;;;18.90;42.80;;;;;;5056295;28;20032;-62
2021/11/25 07:02:24;;;;;;;25.27;18.38;;;19.00;42.60;;;;;;5056659;28;20028;-60
2021/11/25 07:04:51;;;;;;;24.63;17.45;;;19.00;42.50;;;;;;5038463;28;20098;-60
2021/11/25 07:07:17;;;;;;;23.20;16.75;;;19.10;42.50;;;;;;5056241;28;20124;-61
2021/11/25 07:09:43;;;;;;;21.83;16.15;;;19.00;42.40;;;;;;5055830;28;20013;-60
2021/11/25 07:12:09;;;;;;;23.15;17.10;;;19.10;42.40;;;;;;5055315;28;20021;-61
2021/11/25 07:14:35;;;;;;;26.08;16.67;;;19.10;42.30;;;;;;5022040;28;20129;-61
2021/11/25 07:17:01;;;;;;;30.30;16.67;;;19.10;42.20;;;;;;5037871;28;20055;-59
2021/11/25 07:19:28;;;;;;;23.35;17.55;;;19.20;42.20;;;;;;5036491;28;20017;-61
2021/11/25 07:21:54;;;;;;;22.15;16.88;;;19.20;42.10;;;;;;5035447;28;20045;-62
2021/11/25 07:24:21;;;;;;;32.40;20.52;;;19.10;42.40;;;;;;5054622;28;20430;-62
2021/11/25 07:26:48;;;;;;;32.38;23.23;;;18.60;43.90;;;;;;5035817;28;20025;-61
2021/11/25 07:29:15;;;;;;;37.97;25.35;;;18.20;45.30;;;;;;5036142;28;20017;-59
2021/11/25 07:31:41;;;;;;;35.13;24.98;;;17.80;46.60;;;;;;5054016;28;20021;-63
2021/11/25 07:34:07;;;;;;;37.38;26.00;;;17.50;47.40;;;;;;5036305;28;20009;-60
2021/11/25 07:36:33;;;;;;;36.30;25.98;;;17.00;48.90;;;;;;5034735;28;20130;-59
2021/11/25 07:38:59;;;;;;;36.90;25.95;;;17.00;49.00;;;;;;5036521;28;20101;-59
2021/11/25 07:41:25;;;;;;;34.83;25.10;;;17.20;48.70;;;;;;5054571;28;20049;-60
2021/11/25 07:43:52;;;;;;;33.38;24.75;;;17.40;48.90;;;;;;5036414;28;20025;-59
2021/11/25 07:46:18;;;;;;;40.90;25.90;;;17.50;48.80;;;;;;5053539;28;20027;-59
2021/11/25 07:48:44;;;;;;;39.67;26.70;;;17.50;48.80;;;;;;5036071;28;20029;-59
2021/11/25 07:51:09;;;;;;;38.30;25.65;;;17.50;48.60;;;;;;5053694;28;20511;-59
2021/11/25 07:53:36;;;;;;;38.05;25.92;;;17.60;48.60;;;;;;5053725;28;20063;-61
2021/11/25 07:56:02;;;;;;;40.47;26.75;;;17.60;48.20;;;;;;5054314;28;20477;-60
2021/11/25 07:58:28;;;;;;;50.20;25.45;;;17.60;48.20;;;;;;5053866;28;20534;-60
2021/11/25 08:00:54;;;;;;;37.38;25.13;;;17.60;48.70;;;;;;5054246;28;20021;-59
2021/11/25 08:03:20;;;;;;;36.47;25.25;;;17.60;48.70;;;;;;5053972;28;20430;-60
2021/11/25 08:05:46;;;;;;;41.72;26.25;;;17.60;48.40;;;;;;5052504;28;20044;-60
2021/11/25 08:08:12;;;;;;;40.10;26.23;;;17.60;48.20;;;;;;5035634;28;20067;-60
2021/11/25 08:10:37;;;;;;;35.58;24.98;;;17.60;47.90;;;;;;5053662;28;20452;-58
2021/11/25 08:13:04;;;;;;;39.40;25.98;;;17.60;48.30;;;;;;5034967;28;20032;-58
2021/11/25 08:15:34;;;;;;;43.72;26.42;;;17.50;48.50;;;;;;5035635;28;20110;-58
2021/11/25 08:18:01;;;;;;;40.15;25.85;;;17.40;48.20;;;;;;5020212;28;20028;-62
2021/11/25 08:20:29;;;;;;;37.80;26.33;;;17.30;48.30;;;;;;5053893;28;20036;-60
2021/11/25 08:22:55;;;;;;;37.35;26.77;;;17.10;48.40;;;;;;5052592;28;20377;-59
2021/11/25 08:25:23;;;;;;;39.08;26.38;;;17.00;48.10;;;;;;5053889;28;20099;-60
2021/11/25 08:27:52;;;;;;;36.60;25.85;;;16.90;49.10;;;;;;5053568;28;20032;-58
2021/11/25 08:30:18;;;;;;;36.08;25.55;;;16.90;48.80;;;;;;5053664;28;20039;-59
2021/11/25 08:32:43;;;;;;;38.72;26.33;;;17.00;49.10;;;;;;5035885;28;20029;-60
2021/11/25 08:35:09;;;;;;;36.70;26.25;;;17.00;49.40;;;;;;5018674;28;20131;-60
2021/11/25 08:37:37;;;;;;;36.17;26.73;;;16.90;48.70;;;;;;5052930;28;20031;-58
2021/11/25 08:40:04;;;;;;;39.63;25.70;;;16.70;49.40;;;;;;5053481;28;20148;-59
2021/11/25 08:42:30;;;;;;;35.97;25.65;;;16.70;49.40;;;;;;5019284;28;20381;-58
2021/11/25 08:44:56;;;;;;;35.83;24.80;;;16.70;49.70;;;;;;5017629;28;20060;-58
2021/11/25 08:47:22;;;;;;;35.08;25.35;;;16.80;49.80;;;;;;4998896;28;20058;-58
2021/11/25 08:49:49;;;;;;;35.20;24.60;;;16.90;49.80;;;;;;5033502;28;20346;-57
2021/11/25 08:52:14;;;;;;;31.85;24.67;;;17.00;49.90;;;;;;5015422;28;20074;-57
2021/11/25 08:54:40;;;;;;;39.33;25.60;;;16.90;49.50;;;;;;5033116;28;20009;-58
2021/11/25 08:57:06;;;;;;;32.63;24.15;;;16.90;49.70;;;;;;5033078;28;20022;-57
2021/11/25 08:59:32;;;;;;;37.63;25.65;;;16.90;49.80;;;;;;5015592;28;20018;-57
2021/11/25 09:01:58;;;;;;;44.47;25.08;;;16.80;49.80;;;;;;5032760;28;20457;-59
2021/11/25 09:04:24;;;;;;;55.63;27.20;;;16.70;50.00;;;;;;5032653;28;20045;-58
2021/11/25 09:06:50;;;;;;;45.35;26.70;;;16.30;49.90;;;;;;5033143;28;20037;-57
2021/11/25 09:09:16;;;;;;;37.75;23.65;;;16.20;50.90;;;;;;5033555;28;20010;-58
2021/11/25 09:11:44;;;;;;;38.70;24.05;;;16.60;49.70;;;;;;5015964;28;20024;-57
2021/11/25 09:14:10;;;;;;;34.25;22.27;;;17.10;48.70;;;;;;5015398;28;20357;-58
2021/11/25 09:16:37;;;;;;;35.28;23.38;;;17.40;47.80;;;;;;5031212;28;20029;-58
2021/11/25 09:19:05;;;;;;;48.63;21.45;;;17.70;47.10;;;;;;5033544;28;20080;-58
2021/11/25 09:21:32;;;;;;;33.58;21.00;;;18.00;47.10;;;;;;5033563;28;20064;-58
2021/11/25 09:24:04;;;;;;;35.70;20.98;;;18.20;45.90;;;;;;5032722;28;20104;-58
2021/11/25 09:26:30;;;;;;;28.05;19.33;;;18.40;45.50;;;;;;5032851;28;20026;-58
2021/11/25 09:28:59;;;;;;;29.15;19.20;;;18.50;45.10;;;;;;5014575;28;20049;-57
2021/11/25 09:31:26;;;;;;;30.88;18.85;;;18.70;44.90;;;;;;5032438;28;20021;-57
2021/11/25 09:33:52;;;;;;;25.23;18.20;;;18.80;44.60;;;;;;5032156;28;20014;-57
2021/11/25 09:36:19;;;;;;;25.90;18.70;;;18.90;44.40;;;;;;5032464;28;20032;-58
2021/11/25 09:38:45;;;;;;;26.02;18.17;;;19.00;44.20;;;;;;5032349;28;20020;-58
2021/11/25 09:41:11;;;;;;;23.90;17.90;;;19.00;44.00;;;;;;5014544;28;20017;-61
2021/11/25 09:43:37;;;;;;;27.10;18.77;;;19.10;43.90;;;;;;5014510;28;20017;-58
2021/11/25 09:46:05;;;;;;;26.63;17.42;;;19.10;43.80;;;;;;5032752;28;20033;-59
2021/11/25 09:48:31;;;;;;;27.88;16.83;;;19.20;43.70;;;;;;5032424;28;20033;-58
2021/11/25 09:50:58;;;;;;;23.45;16.35;;;19.30;43.60;;;;;;5032205;28;20017;-58
2021/11/25 09:53:25;;;;;;;25.75;16.33;;;19.30;43.40;;;;;;5032753;28;20093;-58
2021/11/25 09:55:54;;;;;;;24.73;15.80;;;19.40;43.30;;;;;;5032952;28;20022;-58
2021/11/25 09:58:25;;;;;;;22.33;15.82;;;19.40;43.20;;;;;;5015580;28;20018;-58
2021/11/25 10:01:02;;;;;;;24.50;15.75;;;19.50;43.20;;;;;;5015527;28;20021;-58
2021/11/25 10:03:27;;;;;;;23.00;15.45;;;19.60;43.10;;;;;;5032342;28;20063;-58
2021/11/25 10:05:57;;;;;;;21.50;15.35;;;19.60;43.00;;;;;;5031712;28;20045;-57
2021/11/25 10:08:52;;;;;;;23.80;16.47;;;19.60;42.90;;;;;;5031708;28;20116;-57
2021/11/25 10:11:24;;;;;;;31.15;19.63;;;19.60;43.10;;;;;;5030431;28;20121;-59
2021/11/25 10:13:57;;;;;;;27.00;20.10;;;18.80;44.60;;;;;;5032301;28;20022;-61
2021/11/25 10:16:28;;;;;;;30.98;22.42;;;18.20;46.40;;;;;;5015648;28;20052;-58
2021/11/25 10:18:57;;;;;;;30.85;21.98;;;17.90;47.20;;;;;;5032935;28;20045;-59
2021/11/25 10:21:25;;;;;;;33.53;23.42;;;17.30;48.70;;;;;;5033437;28;20096;-59
2021/11/25 10:23:55;;;;;;;32.47;22.45;;;17.50;49.10;;;;;;5033294;28;20017;-59
2021/11/25 10:26:26;;;;;;;35.88;23.02;;;17.60;49.00;;;;;;5033545;28;20488;-58
2021/11/25 10:28:59;;;;;;;30.35;21.45;;;17.40;49.10;;;;;;5034990;28;20018;-58
2021/11/25 10:31:30;;;;;;;34.53;23.55;;;17.20;49.70;;;;;;5018068;28;20132;-59
2021/11/25 10:34:03;;;;;;;29.15;21.58;;;17.20;49.80;;;;;;5036463;28;20037;-58
2021/11/25 10:41:58;;;;;;;35.67;22.50;;;17.10;50.50;;;;;;5036962;28;20044;-58
2021/11/25 10:44:33;;;;;;;28.25;20.65;;;17.30;50.50;;;;;;5017486;28;20077;-58
2021/11/25 10:47:04;;;;;;;32.85;21.67;;;17.30;50.40;;;;;;5035096;28;20021;-57
2021/11/25 10:49:38;;;;;;;28.77;20.25;;;17.50;50.30;;;;;;5016920;28;20435;-57
2021/11/25 10:52:16;;;;;;;30.27;21.13;;;17.70;50.20;;;;;;5035040;28;20028;-58
2021/11/25 10:55:08;;;;;;;29.95;21.40;;;17.80;50.90;;;;;;5034617;28;20048;-57
2021/11/25 10:57:54;;;;;;;30.60;20.90;;;17.90;50.50;;;;;;5036867;28;20067;-59
2021/11/25 11:00:24;;;;;;;32.17;20.50;;;18.00;50.10;;;;;;5039356;28;20014;-58
2021/11/25 11:03:12;;;;;;;28.35;20.20;;;18.00;50.20;;;;;;5039755;28;20076;-57
2021/11/25 11:05:56;;;;;;;31.05;19.23;;;18.10;49.80;;;;;;5038691;28;20060;-57
2021/11/25 11:08:22;;;;;;;29.17;19.17;;;18.10;49.10;;;;;;5039208;28;20112;-57
2021/11/25 11:10:59;;;;;;;29.38;18.10;;;18.40;48.70;;;;;;5038552;28;20018;-57
2021/11/25 11:16:42;;;;;;;21.05;16.00;;;18.80;47.60;;;;;;5038716;28;20025;-57
2021/11/25 11:19:00;;;;;;;21.30;15.25;;;19.00;47.10;;;;;;5027725;28;20075;-56
2021/11/25 11:21:38;;;;;;;20.63;15.85;;;19.20;46.70;;;;;;5039132;28;20052;-58
2021/11/25 11:24:35;;;;;;;18.75;13.98;;;19.30;46.30;;;;;;5037226;28;20014;-57
2021/11/25 11:27:02;;;;;;;24.70;15.20;;;19.40;46.00;;;;;;5036702;28;20048;-57
2021/11/25 11:29:29;;;;;;;17.90;13.75;;;19.50;45.80;;;;;;5037350;28;20112;-59
2021/11/25 11:31:57;;;;;;;19.52;13.45;;;19.60;45.60;;;;;;5037259;28;20572;-59
2021/11/25 11:34:25;;;;;;;17.02;12.73;;;19.70;45.40;;;;;;5037008;28;20014;-59
2021/11/25 11:36:52;;;;;;;22.02;12.48;;;19.70;45.70;;;;;;5036731;28;20013;-59
2021/11/25 11:39:20;;;;;;;19.88;12.13;;;19.80;45.10;;;;;;5035872;28;20014;-60
2021/11/25 11:41:50;;;;;;;19.67;11.63;;;19.90;44.90;;;;;;5036256;28;20021;-59
2021/11/25 11:44:20;;;;;;;16.25;10.68;;;19.90;45.50;;;;;;5034849;28;20017;-57
2021/11/25 11:46:49;;;;;;;16.85;10.50;;;19.90;44.90;;;;;;5034148;28;20030;-57
2021/11/25 11:49:15;;;;;;;14.57;10.05;;;19.90;44.90;;;;;;5000060;28;20144;-57
2021/11/25 11:51:41;;;;;;;15.10;9.60;;;20.00;44.80;;;;;;5034285;28;20014;-57
2021/11/25 11:54:42;;;;;;;15.23;9.93;;;20.00;44.70;;;;;;5016467;28;20028;-58
2021/11/25 11:57:43;;;;;;;17.52;8.93;;;19.80;45.00;;;;;;4938715;29;20043;-57
2021/11/25 12:00:18;;;;;;;17.05;11.13;;;19.50;46.00;;;;;;4954333;29;20082;-59
2021/11/25 12:02:45;;;;;;;19.50;11.63;;;19.30;46.50;;;;;;4953686;29;20130;-59
2021/11/25 12:05:32;;;;;;;17.55;11.90;;;19.10;47.00;;;;;;4952991;28;20130;-55
2021/11/25 12:08:19;;;;;;;15.68;11.73;;;18.90;47.50;;;;;;4940505;29;20150;-58
2021/11/25 12:11:00;;;;;;;18.02;11.70;;;18.70;48.00;;;;;;4947966;29;20039;-58
2021/11/25 12:13:31;;;;;;;17.63;12.00;;;18.60;48.50;;;;;;4953738;29;20106;-57
2021/11/25 12:16:16;;;;;;;16.90;11.13;;;18.50;48.90;;;;;;4938047;29;20082;-58
2021/11/25 12:18:42;;;;;;;19.15;12.77;;;18.60;49.10;;;;;;4954107;29;20035;-56
2021/11/25 12:21:08;;;;;;;18.35;12.07;;;18.50;49.40;;;;;;4953936;29;20161;-53
2021/11/25 12:23:38;;;;;;;17.77;10.57;;;18.70;49.30;;;;;;4953935;29;20140;-58
2021/11/25 12:26:05;;;;;;;15.73;12.13;;;18.70;49.40;;;;;;4954070;29;20027;-55
2021/11/25 12:28:32;;;;;;;18.15;11.90;;;18.50;49.60;;;;;;4952942;29;20047;-57
2021/11/25 12:33:50;;;;;;;17.45;11.73;;;18.30;50.30;;;;;;4966580;28;20537;-54
2021/11/25 12:36:37;;;;;;;16.88;12.00;;;18.10;50.90;;;;;;4979070;28;20018;-54
2021/11/25 12:39:05;;;;;;;15.80;10.23;;;18.00;51.20;;;;;;5013102;28;20061;-55
2021/11/25 12:41:36;;;;;;;31.40;11.55;;;18.10;51.00;;;;;;5013814;28;20010;-56
2021/11/25 12:44:02;;;;;;;32.45;10.93;;;18.20;50.90;;;;;;5013470;28;20018;-53
2021/11/25 12:46:30;;;;;;;25.45;8.98;;;18.30;50.40;;;;;;5013865;28;20010;-55
2021/11/25 12:48:56;;;;;;;19.40;8.07;;;18.40;50.10;;;;;;4979652;28;20076;-54
2021/11/25 12:51:26;;;;;;;20.42;7.55;;;18.70;50.00;;;;;;5013226;28;20014;-56